sensor_id;sensor_type;location;lat;lon;timestamp;P1;durP1;ratioP1;P2;durP2;ratioP2
30743;SDS011;17486;46.738;7.622;2022-09-09T00:00:19;2.72;;;1.00;;
30743;SDS011;17486;46.738;7.622;2022-09-09T00:05:36;2.08;;;1.20;;
30743;SDS011;17486;46.738;7.622;2022-09-09T00:08:11;1.98;;;1.23;;
30743;SDS011;17486;46.738;7.622;2022-09-09T00:10:45;2.63;;;1.20;;
30743;SDS011;17486;46.738;7.622;2022-09-09T00:13:28;2.00;;;1.00;;
30743;SDS011;17486;46.738;7.622;2022-09-09T00:18:58;1.42;;;1.05;;
30743;SDS011;17486;46.738;7.622;2022-09-09T00:21:34;2.20;;;1.20;;
30743;SDS011;17486;46.738;7.622;2022-09-09T00:24:08;1.85;;;1.00;;
30743;SDS011;17486;46.738;7.622;2022-09-09T00:26:45;2.33;;;1.13;;
30743;SDS011;17486;46.738;7.622;2022-09-09T00:29:28;3.00;;;1.02;;
30743;SDS011;17486;46.738;7.622;2022-09-09T00:32:00;3.03;;;0.90;;
30743;SDS011;17486;46.738;7.622;2022-09-09T00:34:36;3.30;;;1.20;;
30743;SDS011;17486;46.738;7.622;2022-09-09T00:37:11;2.30;;;1.10;;
30743;SDS011;17486;46.738;7.622;2022-09-09T00:39:44;4.47;;;1.00;;
30743;SDS011;17486;46.738;7.622;2022-09-09T00:44:39;1.92;;;1.50;;
30743;SDS011;17486;46.738;7.622;2022-09-09T00:47:33;2.20;;;1.50;;
30743;SDS011;17486;46.738;7.622;2022-09-09T00:59:46;3.85;;;1.33;;
30743;SDS011;17486;46.738;7.622;2022-09-09T01:02:21;1.48;;;1.20;;
30743;SDS011;17486;46.738;7.622;2022-09-09T01:04:53;1.60;;;1.13;;
30743;SDS011;17486;46.738;7.622;2022-09-09T01:07:19;2.22;;;1.10;;
30743;SDS011;17486;46.738;7.622;2022-09-09T01:12:29;2.95;;;1.60;;
30743;SDS011;17486;46.738;7.622;2022-09-09T01:15:09;3.20;;;1.20;;
30743;SDS011;17486;46.738;7.622;2022-09-09T01:21:06;2.95;;;1.10;;
30743;SDS011;17486;46.738;7.622;2022-09-09T01:28:51;2.88;;;1.52;;
30743;SDS011;17486;46.738;7.622;2022-09-09T01:31:19;1.77;;;1.23;;
30743;SDS011;17486;46.738;7.622;2022-09-09T01:33:47;2.60;;;1.27;;
30743;SDS011;17486;46.738;7.622;2022-09-09T01:36:16;2.33;;;1.23;;
30743;SDS011;17486;46.738;7.622;2022-09-09T01:38:46;2.83;;;1.00;;
30743;SDS011;17486;46.738;7.622;2022-09-09T01:41:11;1.35;;;0.93;;
30743;SDS011;17486;46.738;7.622;2022-09-09T01:43:37;4.00;;;1.23;;
30743;SDS011;17486;46.738;7.622;2022-09-09T01:46:02;3.05;;;1.20;;
30743;SDS011;17486;46.738;7.622;2022-09-09T01:48:28;1.23;;;0.80;;
30743;SDS011;17486;46.738;7.622;2022-09-09T01:50:55;3.85;;;0.95;;
30743;SDS011;17486;46.738;7.622;2022-09-09T01:53:20;3.15;;;1.55;;
30743;SDS011;17486;46.738;7.622;2022-09-09T02:04:03;2.47;;;1.13;;
30743;SDS011;17486;46.738;7.622;2022-09-09T02:06:43;4.20;;;1.25;;
30743;SDS011;17486;46.738;7.622;2022-09-09T02:09:11;1.48;;;1.20;;
30743;SDS011;17486;46.738;7.622;2022-09-09T02:11:38;2.08;;;1.10;;
30743;SDS011;17486;46.738;7.622;2022-09-09T02:14:11;1.60;;;1.00;;
30743;SDS011;17486;46.738;7.622;2022-09-09T02:16:52;1.50;;;0.98;;
30743;SDS011;17486;46.738;7.622;2022-09-09T02:19:26;1.33;;;1.23;;
30743;SDS011;17486;46.738;7.622;2022-09-09T02:21:57;2.80;;;1.15;;
30743;SDS011;17486;46.738;7.622;2022-09-09T02:24:24;3.47;;;1.17;;
30743;SDS011;17486;46.738;7.622;2022-09-09T02:26:52;3.65;;;1.10;;
30743;SDS011;17486;46.738;7.622;2022-09-09T02:29:28;1.85;;;1.30;;
30743;SDS011;17486;46.738;7.622;2022-09-09T02:31:57;1.73;;;1.10;;
30743;SDS011;17486;46.738;7.622;2022-09-09T02:34:28;1.38;;;1.10;;
30743;SDS011;17486;46.738;7.622;2022-09-09T02:36:55;2.17;;;1.10;;
30743;SDS011;17486;46.738;7.622;2022-09-09T02:39:22;3.25;;;1.30;;
30743;SDS011;17486;46.738;7.622;2022-09-09T02:41:47;1.15;;;1.00;;
30743;SDS011;17486;46.738;7.622;2022-09-09T02:44:14;2.47;;;1.27;;
30743;SDS011;17486;46.738;7.622;2022-09-09T02:49:40;1.70;;;1.10;;
30743;SDS011;17486;46.738;7.622;2022-09-09T02:52:12;2.35;;;1.20;;
30743;SDS011;17486;46.738;7.622;2022-09-09T02:54:41;2.63;;;1.20;;
30743;SDS011;17486;46.738;7.622;2022-09-09T02:59:43;1.27;;;0.95;;
30743;SDS011;17486;46.738;7.622;2022-09-09T03:02:09;2.63;;;1.13;;
30743;SDS011;17486;46.738;7.622;2022-09-09T03:04:36;2.05;;;1.00;;
30743;SDS011;17486;46.738;7.622;2022-09-09T03:07:03;3.60;;;1.35;;
30743;SDS011;17486;46.738;7.622;2022-09-09T03:09:28;1.40;;;1.30;;
30743;SDS011;17486;46.738;7.622;2022-09-09T03:11:54;1.45;;;1.13;;
30743;SDS011;17486;46.738;7.622;2022-09-09T03:14:20;1.83;;;1.30;;
30743;SDS011;17486;46.738;7.622;2022-09-09T03:16:49;1.05;;;0.95;;
30743;SDS011;17486;46.738;7.622;2022-09-09T03:19:15;1.33;;;1.02;;
30743;SDS011;17486;46.738;7.622;2022-09-09T03:21:40;4.07;;;1.30;;
30743;SDS011;17486;46.738;7.622;2022-09-09T03:24:06;4.15;;;1.35;;
30743;SDS011;17486;46.738;7.622;2022-09-09T03:26:31;4.28;;;1.27;;
30743;SDS011;17486;46.738;7.622;2022-09-09T03:28:57;1.45;;;1.05;;
30743;SDS011;17486;46.738;7.622;2022-09-09T03:31:25;1.42;;;0.90;;
30743;SDS011;17486;46.738;7.622;2022-09-09T03:33:51;2.95;;;0.93;;
30743;SDS011;17486;46.738;7.622;2022-09-09T03:36:16;2.05;;;1.25;;
30743;SDS011;17486;46.738;7.622;2022-09-09T03:38:41;2.13;;;1.30;;
30743;SDS011;17486;46.738;7.622;2022-09-09T03:41:07;1.33;;;1.23;;
30743;SDS011;17486;46.738;7.622;2022-09-09T03:43:33;1.90;;;1.15;;
30743;SDS011;17486;46.738;7.622;2022-09-09T03:45:59;3.38;;;1.70;;
30743;SDS011;17486;46.738;7.622;2022-09-09T03:48:25;4.22;;;1.25;;
30743;SDS011;17486;46.738;7.622;2022-09-09T03:50:53;2.78;;;1.30;;
30743;SDS011;17486;46.738;7.622;2022-09-09T03:53:20;2.65;;;1.40;;
30743;SDS011;17486;46.738;7.622;2022-09-09T03:55:47;2.30;;;1.23;;
30743;SDS011;17486;46.738;7.622;2022-09-09T03:58:15;1.98;;;1.15;;
30743;SDS011;17486;46.738;7.622;2022-09-09T04:00:41;2.08;;;1.10;;
30743;SDS011;17486;46.738;7.622;2022-09-09T04:03:10;2.75;;;1.25;;
30743;SDS011;17486;46.738;7.622;2022-09-09T04:05:36;2.47;;;1.23;;
30743;SDS011;17486;46.738;7.622;2022-09-09T04:08:05;2.42;;;1.42;;
30743;SDS011;17486;46.738;7.622;2022-09-09T04:10:31;1.80;;;1.20;;
30743;SDS011;17486;46.738;7.622;2022-09-09T04:12:56;3.67;;;1.30;;
30743;SDS011;17486;46.738;7.622;2022-09-09T04:15:22;3.10;;;1.20;;
30743;SDS011;17486;46.738;7.622;2022-09-09T04:17:47;1.65;;;1.25;;
30743;SDS011;17486;46.738;7.622;2022-09-09T04:20:13;2.67;;;1.33;;
30743;SDS011;17486;46.738;7.622;2022-09-09T04:22:38;3.03;;;1.63;;
30743;SDS011;17486;46.738;7.622;2022-09-09T04:25:04;2.17;;;1.35;;
30743;SDS011;17486;46.738;7.622;2022-09-09T04:27:31;3.50;;;1.50;;
30743;SDS011;17486;46.738;7.622;2022-09-09T04:29:56;4.13;;;1.52;;
30743;SDS011;17486;46.738;7.622;2022-09-09T04:32:22;4.28;;;1.63;;
30743;SDS011;17486;46.738;7.622;2022-09-09T04:34:47;1.40;;;1.23;;
30743;SDS011;17486;46.738;7.622;2022-09-09T04:37:13;1.50;;;1.10;;
30743;SDS011;17486;46.738;7.622;2022-09-09T04:39:39;1.42;;;1.30;;
30743;SDS011;17486;46.738;7.622;2022-09-09T04:42:04;2.88;;;1.50;;
30743;SDS011;17486;46.738;7.622;2022-09-09T04:44:30;1.98;;;1.23;;
30743;SDS011;17486;46.738;7.622;2022-09-09T04:46:55;1.75;;;1.23;;
30743;SDS011;17486;46.738;7.622;2022-09-09T04:49:21;1.55;;;1.10;;
30743;SDS011;17486;46.738;7.622;2022-09-09T04:51:48;2.35;;;1.50;;
30743;SDS011;17486;46.738;7.622;2022-09-09T04:54:14;3.50;;;1.50;;
30743;SDS011;17486;46.738;7.622;2022-09-09T04:56:40;5.13;;;1.35;;
30743;SDS011;17486;46.738;7.622;2022-09-09T04:59:07;2.58;;;1.20;;
30743;SDS011;17486;46.738;7.622;2022-09-09T05:01:32;1.85;;;1.45;;
30743;SDS011;17486;46.738;7.622;2022-09-09T05:03:58;2.60;;;1.70;;
30743;SDS011;17486;46.738;7.622;2022-09-09T05:06:24;3.75;;;1.30;;
30743;SDS011;17486;46.738;7.622;2022-09-09T05:08:49;2.15;;;1.55;;
30743;SDS011;17486;46.738;7.622;2022-09-09T05:11:16;1.80;;;1.40;;
30743;SDS011;17486;46.738;7.622;2022-09-09T05:13:46;5.10;;;1.40;;
30743;SDS011;17486;46.738;7.622;2022-09-09T05:16:12;2.97;;;1.40;;
30743;SDS011;17486;46.738;7.622;2022-09-09T05:18:39;2.60;;;1.70;;
30743;SDS011;17486;46.738;7.622;2022-09-09T05:21:06;6.40;;;1.63;;
30743;SDS011;17486;46.738;7.622;2022-09-09T05:23:32;4.82;;;1.90;;
30743;SDS011;17486;46.738;7.622;2022-09-09T05:26:02;3.65;;;1.83;;
30743;SDS011;17486;46.738;7.622;2022-09-09T05:28:28;4.68;;;2.17;;
30743;SDS011;17486;46.738;7.622;2022-09-09T05:30:58;4.63;;;2.03;;
30743;SDS011;17486;46.738;7.622;2022-09-09T05:33:29;2.53;;;1.55;;
30743;SDS011;17486;46.738;7.622;2022-09-09T05:35:59;4.88;;;1.80;;
30743;SDS011;17486;46.738;7.622;2022-09-09T05:38:29;2.75;;;1.65;;
30743;SDS011;17486;46.738;7.622;2022-09-09T05:40:56;2.55;;;1.60;;
30743;SDS011;17486;46.738;7.622;2022-09-09T05:43:22;1.60;;;1.50;;
30743;SDS011;17486;46.738;7.622;2022-09-09T05:45:58;3.92;;;1.90;;
30743;SDS011;17486;46.738;7.622;2022-09-09T05:48:43;1.90;;;1.60;;
30743;SDS011;17486;46.738;7.622;2022-09-09T05:51:13;2.83;;;1.67;;
30743;SDS011;17486;46.738;7.622;2022-09-09T05:53:42;3.80;;;2.00;;
30743;SDS011;17486;46.738;7.622;2022-09-09T05:56:10;3.35;;;1.75;;
30743;SDS011;17486;46.738;7.622;2022-09-09T05:58:37;3.53;;;1.58;;
30743;SDS011;17486;46.738;7.622;2022-09-09T06:01:07;3.72;;;2.08;;
30743;SDS011;17486;46.738;7.622;2022-09-09T06:03:38;3.00;;;1.75;;
30743;SDS011;17486;46.738;7.622;2022-09-09T06:06:06;2.45;;;2.00;;
30743;SDS011;17486;46.738;7.622;2022-09-09T06:08:33;2.55;;;1.70;;
30743;SDS011;17486;46.738;7.622;2022-09-09T06:11:09;3.72;;;2.05;;
30743;SDS011;17486;46.738;7.622;2022-09-09T06:13:37;2.92;;;1.70;;
30743;SDS011;17486;46.738;7.622;2022-09-09T06:16:14;4.25;;;1.90;;
30743;SDS011;17486;46.738;7.622;2022-09-09T06:18:42;3.70;;;1.27;;
30743;SDS011;17486;46.738;7.622;2022-09-09T06:21:09;2.17;;;1.45;;
30743;SDS011;17486;46.738;7.622;2022-09-09T06:23:39;2.28;;;1.10;;
30743;SDS011;17486;46.738;7.622;2022-09-09T06:26:07;3.15;;;1.42;;
30743;SDS011;17486;46.738;7.622;2022-09-09T06:28:37;1.35;;;1.25;;
30743;SDS011;17486;46.738;7.622;2022-09-09T06:31:07;5.07;;;1.55;;
30743;SDS011;17486;46.738;7.622;2022-09-09T06:33:35;2.13;;;1.55;;
30743;SDS011;17486;46.738;7.622;2022-09-09T06:36:05;2.33;;;1.35;;
30743;SDS011;17486;46.738;7.622;2022-09-09T06:38:30;2.80;;;1.70;;
30743;SDS011;17486;46.738;7.622;2022-09-09T06:40:57;2.05;;;1.42;;
30743;SDS011;17486;46.738;7.622;2022-09-09T06:43:24;4.20;;;1.67;;
30743;SDS011;17486;46.738;7.622;2022-09-09T06:45:58;6.28;;;1.77;;
30743;SDS011;17486;46.738;7.622;2022-09-09T06:48:27;6.80;;;2.20;;
30743;SDS011;17486;46.738;7.622;2022-09-09T06:53:36;2.33;;;1.58;;
30743;SDS011;17486;46.738;7.622;2022-09-09T06:58:34;4.05;;;1.80;;
30743;SDS011;17486;46.738;7.622;2022-09-09T07:01:04;1.52;;;1.38;;
30743;SDS011;17486;46.738;7.622;2022-09-09T07:03:31;2.40;;;1.45;;
30743;SDS011;17486;46.738;7.622;2022-09-09T07:05:56;4.82;;;1.50;;
30743;SDS011;17486;46.738;7.622;2022-09-09T07:08:22;4.22;;;1.40;;
30743;SDS011;17486;46.738;7.622;2022-09-09T07:10:48;2.03;;;1.60;;
30743;SDS011;17486;46.738;7.622;2022-09-09T07:13:14;1.85;;;1.30;;
30743;SDS011;17486;46.738;7.622;2022-09-09T07:15:40;1.90;;;1.05;;
30743;SDS011;17486;46.738;7.622;2022-09-09T07:18:06;2.40;;;1.38;;
30743;SDS011;17486;46.738;7.622;2022-09-09T07:20:32;3.42;;;1.23;;
30743;SDS011;17486;46.738;7.622;2022-09-09T07:22:57;4.20;;;1.20;;
30743;SDS011;17486;46.738;7.622;2022-09-09T07:25:24;1.55;;;1.30;;
30743;SDS011;17486;46.738;7.622;2022-09-09T07:27:53;2.45;;;1.27;;
30743;SDS011;17486;46.738;7.622;2022-09-09T07:30:19;1.38;;;1.27;;
30743;SDS011;17486;46.738;7.622;2022-09-09T07:32:45;2.35;;;1.58;;
30743;SDS011;17486;46.738;7.622;2022-09-09T07:35:10;2.45;;;1.73;;
30743;SDS011;17486;46.738;7.622;2022-09-09T07:37:37;4.85;;;1.73;;
30743;SDS011;17486;46.738;7.622;2022-09-09T07:40:03;4.18;;;1.80;;
30743;SDS011;17486;46.738;7.622;2022-09-09T07:42:29;2.10;;;1.35;;
30743;SDS011;17486;46.738;7.622;2022-09-09T07:44:55;2.17;;;1.33;;
30743;SDS011;17486;46.738;7.622;2022-09-09T07:47:21;3.83;;;1.50;;
30743;SDS011;17486;46.738;7.622;2022-09-09T07:49:46;1.52;;;1.33;;
30743;SDS011;17486;46.738;7.622;2022-09-09T07:52:13;3.50;;;1.60;;
30743;SDS011;17486;46.738;7.622;2022-09-09T07:54:39;2.10;;;1.50;;
30743;SDS011;17486;46.738;7.622;2022-09-09T07:57:04;1.98;;;1.20;;
30743;SDS011;17486;46.738;7.622;2022-09-09T07:59:30;2.85;;;1.33;;
30743;SDS011;17486;46.738;7.622;2022-09-09T08:01:55;3.63;;;1.42;;
30743;SDS011;17486;46.738;7.622;2022-09-09T08:04:21;1.70;;;1.33;;
30743;SDS011;17486;46.738;7.622;2022-09-09T08:06:50;2.58;;;1.20;;
30743;SDS011;17486;46.738;7.622;2022-09-09T08:09:20;1.40;;;1.00;;
30743;SDS011;17486;46.738;7.622;2022-09-09T08:11:46;1.25;;;1.00;;
30743;SDS011;17486;46.738;7.622;2022-09-09T08:14:12;1.20;;;1.10;;
30743;SDS011;17486;46.738;7.622;2022-09-09T08:16:39;2.33;;;1.13;;
30743;SDS011;17486;46.738;7.622;2022-09-09T08:19:07;1.40;;;1.20;;
30743;SDS011;17486;46.738;7.622;2022-09-09T08:21:33;1.50;;;1.40;;
30743;SDS011;17486;46.738;7.622;2022-09-09T08:24:01;1.42;;;1.20;;
30743;SDS011;17486;46.738;7.622;2022-09-09T08:26:31;2.45;;;1.88;;
30743;SDS011;17486;46.738;7.622;2022-09-09T08:29:02;3.95;;;1.50;;
30743;SDS011;17486;46.738;7.622;2022-09-09T08:31:36;1.80;;;1.20;;
30743;SDS011;17486;46.738;7.622;2022-09-09T08:34:03;1.38;;;1.27;;
30743;SDS011;17486;46.738;7.622;2022-09-09T08:36:31;2.10;;;1.52;;
30743;SDS011;17486;46.738;7.622;2022-09-09T08:38:58;2.22;;;1.02;;
30743;SDS011;17486;46.738;7.622;2022-09-09T08:47:02;3.30;;;1.10;;
30743;SDS011;17486;46.738;7.622;2022-09-09T08:49:40;2.03;;;1.35;;
30743;SDS011;17486;46.738;7.622;2022-09-09T08:52:15;1.45;;;1.10;;
30743;SDS011;17486;46.738;7.622;2022-09-09T08:54:44;1.60;;;1.00;;
30743;SDS011;17486;46.738;7.622;2022-09-09T08:57:12;2.10;;;1.00;;
30743;SDS011;17486;46.738;7.622;2022-09-09T08:59:43;1.30;;;0.80;;
30743;SDS011;17486;46.738;7.622;2022-09-09T09:02:21;2.55;;;0.85;;
30743;SDS011;17486;46.738;7.622;2022-09-09T09:13:01;2.58;;;1.00;;
30743;SDS011;17486;46.738;7.622;2022-09-09T09:15:33;1.50;;;0.75;;
30743;SDS011;17486;46.738;7.622;2022-09-09T09:18:03;1.95;;;0.82;;
30743;SDS011;17486;46.738;7.622;2022-09-09T09:20:42;3.80;;;1.77;;
30743;SDS011;17486;46.738;7.622;2022-09-09T09:23:09;1.58;;;1.00;;
30743;SDS011;17486;46.738;7.622;2022-09-09T09:25:43;1.38;;;0.82;;
30743;SDS011;17486;46.738;7.622;2022-09-09T09:30:54;1.33;;;0.80;;
30743;SDS011;17486;46.738;7.622;2022-09-09T09:33:27;1.65;;;0.85;;
30743;SDS011;17486;46.738;7.622;2022-09-09T09:36:00;1.60;;;1.10;;
30743;SDS011;17486;46.738;7.622;2022-09-09T09:38:27;2.28;;;0.80;;
30743;SDS011;17486;46.738;7.622;2022-09-09T09:40:54;3.25;;;0.85;;
30743;SDS011;17486;46.738;7.622;2022-09-09T09:43:29;1.92;;;1.02;;
30743;SDS011;17486;46.738;7.622;2022-09-09T09:45:57;1.63;;;0.90;;
30743;SDS011;17486;46.738;7.622;2022-09-09T09:48:23;2.67;;;1.00;;
30743;SDS011;17486;46.738;7.622;2022-09-09T09:51:02;1.83;;;0.90;;
30743;SDS011;17486;46.738;7.622;2022-09-09T09:53:34;1.02;;;0.75;;
30743;SDS011;17486;46.738;7.622;2022-09-09T09:56:02;1.20;;;0.90;;
30743;SDS011;17486;46.738;7.622;2022-09-09T09:58:30;2.00;;;0.68;;
30743;SDS011;17486;46.738;7.622;2022-09-09T10:00:59;3.80;;;0.90;;
30743;SDS011;17486;46.738;7.622;2022-09-09T10:03:29;1.52;;;1.13;;
30743;SDS011;17486;46.738;7.622;2022-09-09T10:05:56;3.03;;;1.63;;
30743;SDS011;17486;46.738;7.622;2022-09-09T10:08:25;2.85;;;1.00;;
30743;SDS011;17486;46.738;7.622;2022-09-09T10:10:58;2.33;;;1.00;;
30743;SDS011;17486;46.738;7.622;2022-09-09T10:19:37;1.20;;;1.00;;
30743;SDS011;17486;46.738;7.622;2022-09-09T10:22:28;1.40;;;0.90;;
30743;SDS011;17486;46.738;7.622;2022-09-09T10:28:00;1.17;;;0.90;;
30743;SDS011;17486;46.738;7.622;2022-09-09T10:33:08;1.90;;;1.10;;
30743;SDS011;17486;46.738;7.622;2022-09-09T10:43:09;3.10;;;1.10;;
30743;SDS011;17486;46.738;7.622;2022-09-09T10:45:55;3.30;;;1.58;;
30743;SDS011;17486;46.738;7.622;2022-09-09T10:48:33;3.28;;;1.17;;
30743;SDS011;17486;46.738;7.622;2022-09-09T10:53:45;1.35;;;0.93;;
30743;SDS011;17486;46.738;7.622;2022-09-09T10:56:16;1.35;;;1.00;;
30743;SDS011;17486;46.738;7.622;2022-09-09T10:58:47;0.88;;;0.70;;
30743;SDS011;17486;46.738;7.622;2022-09-09T11:03:56;2.85;;;1.17;;
30743;SDS011;17486;46.738;7.622;2022-09-09T11:06:31;1.42;;;0.95;;
30743;SDS011;17486;46.738;7.622;2022-09-09T11:09:04;1.52;;;0.65;;
30743;SDS011;17486;46.738;7.622;2022-09-09T11:12:04;2.38;;;0.88;;
30743;SDS011;17486;46.738;7.622;2022-09-09T11:14:38;2.08;;;0.95;;
30743;SDS011;17486;46.738;7.622;2022-09-09T11:17:12;3.40;;;1.00;;
30743;SDS011;17486;46.738;7.622;2022-09-09T11:19:42;1.08;;;0.88;;
30743;SDS011;17486;46.738;7.622;2022-09-09T11:24:47;3.22;;;0.95;;
30743;SDS011;17486;46.738;7.622;2022-09-09T11:38:26;2.13;;;1.23;;
30743;SDS011;17486;46.738;7.622;2022-09-09T11:40:54;1.95;;;1.05;;
30743;SDS011;17486;46.738;7.622;2022-09-09T11:43:25;5.35;;;0.80;;
30743;SDS011;17486;46.738;7.622;2022-09-09T11:45:56;2.63;;;1.15;;
30743;SDS011;17486;46.738;7.622;2022-09-09T11:48:40;1.95;;;1.05;;
30743;SDS011;17486;46.738;7.622;2022-09-09T11:51:25;3.20;;;1.08;;
30743;SDS011;17486;46.738;7.622;2022-09-09T11:53:56;1.65;;;0.90;;
30743;SDS011;17486;46.738;7.622;2022-09-09T11:58:59;1.95;;;1.08;;
30743;SDS011;17486;46.738;7.622;2022-09-09T12:01:29;1.65;;;1.02;;
30743;SDS011;17486;46.738;7.622;2022-09-09T12:06:41;2.33;;;1.00;;
30743;SDS011;17486;46.738;7.622;2022-09-09T12:09:18;1.83;;;1.08;;
30743;SDS011;17486;46.738;7.622;2022-09-09T12:11:51;2.65;;;0.90;;
30743;SDS011;17486;46.738;7.622;2022-09-09T12:14:21;0.93;;;0.75;;
30743;SDS011;17486;46.738;7.622;2022-09-09T12:17:08;0.90;;;0.80;;
30743;SDS011;17486;46.738;7.622;2022-09-09T12:19:48;0.88;;;0.77;;
30743;SDS011;17486;46.738;7.622;2022-09-09T12:22:40;1.45;;;1.00;;
30743;SDS011;17486;46.738;7.622;2022-09-09T12:28:25;3.70;;;1.00;;
30743;SDS011;17486;46.738;7.622;2022-09-09T12:31:19;2.33;;;0.93;;
30743;SDS011;17486;46.738;7.622;2022-09-09T12:33:50;0.98;;;0.73;;
30743;SDS011;17486;46.738;7.622;2022-09-09T12:36:21;1.63;;;1.00;;
30743;SDS011;17486;46.738;7.622;2022-09-09T12:38:49;1.80;;;1.20;;
30743;SDS011;17486;46.738;7.622;2022-09-09T12:41:20;2.25;;;0.80;;
30743;SDS011;17486;46.738;7.622;2022-09-09T12:43:47;1.25;;;0.70;;
30743;SDS011;17486;46.738;7.622;2022-09-09T12:46:17;2.33;;;1.08;;
30743;SDS011;17486;46.738;7.622;2022-09-09T12:48:51;3.15;;;1.00;;
30743;SDS011;17486;46.738;7.622;2022-09-09T12:51:19;2.80;;;1.02;;
30743;SDS011;17486;46.738;7.622;2022-09-09T12:53:50;2.72;;;0.85;;
30743;SDS011;17486;46.738;7.622;2022-09-09T12:56:19;2.70;;;0.98;;
30743;SDS011;17486;46.738;7.622;2022-09-09T13:01:24;1.13;;;0.93;;
30743;SDS011;17486;46.738;7.622;2022-09-09T13:03:53;1.45;;;0.75;;
30743;SDS011;17486;46.738;7.622;2022-09-09T13:06:23;1.05;;;0.60;;
30743;SDS011;17486;46.738;7.622;2022-09-09T13:08:53;3.38;;;0.73;;
30743;SDS011;17486;46.738;7.622;2022-09-09T13:11:30;1.30;;;0.70;;
30743;SDS011;17486;46.738;7.622;2022-09-09T13:14:01;2.33;;;0.60;;
30743;SDS011;17486;46.738;7.622;2022-09-09T13:16:31;1.02;;;0.88;;
30743;SDS011;17486;46.738;7.622;2022-09-09T13:21:38;2.47;;;1.25;;
30743;SDS011;17486;46.738;7.622;2022-09-09T13:24:05;0.90;;;0.57;;
30743;SDS011;17486;46.738;7.622;2022-09-09T13:26:33;2.33;;;0.88;;
30743;SDS011;17486;46.738;7.622;2022-09-09T13:29:18;1.73;;;0.73;;
30743;SDS011;17486;46.738;7.622;2022-09-09T13:31:44;1.10;;;0.65;;
30743;SDS011;17486;46.738;7.622;2022-09-09T13:34:10;2.85;;;0.90;;
30743;SDS011;17486;46.738;7.622;2022-09-09T13:36:58;1.48;;;0.85;;
30743;SDS011;17486;46.738;7.622;2022-09-09T13:39:30;1.67;;;0.73;;
30743;SDS011;17486;46.738;7.622;2022-09-09T13:41:58;0.85;;;0.73;;
30743;SDS011;17486;46.738;7.622;2022-09-09T13:44:27;1.35;;;0.75;;
30743;SDS011;17486;46.738;7.622;2022-09-09T13:47:06;2.13;;;0.70;;
30743;SDS011;17486;46.738;7.622;2022-09-09T13:49:44;2.38;;;0.80;;
30743;SDS011;17486;46.738;7.622;2022-09-09T13:54:38;1.42;;;0.80;;
30743;SDS011;17486;46.738;7.622;2022-09-09T13:57:04;3.70;;;0.70;;
30743;SDS011;17486;46.738;7.622;2022-09-09T13:59:30;0.88;;;0.50;;
30743;SDS011;17486;46.738;7.622;2022-09-09T14:01:56;0.70;;;0.70;;
30743;SDS011;17486;46.738;7.622;2022-09-09T14:04:22;2.58;;;0.68;;
30743;SDS011;17486;46.738;7.622;2022-09-09T14:06:47;3.22;;;0.93;;
30743;SDS011;17486;46.738;7.622;2022-09-09T14:09:15;0.60;;;0.40;;
30743;SDS011;17486;46.738;7.622;2022-09-09T14:11:42;3.55;;;1.02;;
30743;SDS011;17486;46.738;7.622;2022-09-09T14:14:08;1.95;;;0.60;;
30743;SDS011;17486;46.738;7.622;2022-09-09T14:16:34;1.60;;;0.82;;
30743;SDS011;17486;46.738;7.622;2022-09-09T14:18:59;1.08;;;0.68;;
30743;SDS011;17486;46.738;7.622;2022-09-09T14:21:26;2.10;;;0.73;;
30743;SDS011;17486;46.738;7.622;2022-09-09T14:23:52;1.40;;;0.52;;
30743;SDS011;17486;46.738;7.622;2022-09-09T14:26:18;2.03;;;0.70;;
30743;SDS011;17486;46.738;7.622;2022-09-09T14:28:46;1.33;;;0.60;;
30743;SDS011;17486;46.738;7.622;2022-09-09T14:31:12;1.77;;;0.63;;
30743;SDS011;17486;46.738;7.622;2022-09-09T14:33:38;1.42;;;0.60;;
30743;SDS011;17486;46.738;7.622;2022-09-09T14:36:05;0.98;;;0.45;;
30743;SDS011;17486;46.738;7.622;2022-09-09T14:38:34;1.50;;;0.70;;
30743;SDS011;17486;46.738;7.622;2022-09-09T14:41:11;1.92;;;0.70;;
30743;SDS011;17486;46.738;7.622;2022-09-09T14:43:38;2.20;;;0.73;;
30743;SDS011;17486;46.738;7.622;2022-09-09T14:46:07;1.90;;;0.65;;
30743;SDS011;17486;46.738;7.622;2022-09-09T14:48:34;1.35;;;0.80;;
30743;SDS011;17486;46.738;7.622;2022-09-09T14:51:11;0.98;;;0.55;;
30743;SDS011;17486;46.738;7.622;2022-09-09T14:53:38;0.60;;;0.50;;
30743;SDS011;17486;46.738;7.622;2022-09-09T14:56:15;1.13;;;0.50;;
30743;SDS011;17486;46.738;7.622;2022-09-09T14:58:46;2.20;;;0.90;;
30743;SDS011;17486;46.738;7.622;2022-09-09T15:01:13;3.50;;;0.68;;
30743;SDS011;17486;46.738;7.622;2022-09-09T15:03:40;1.40;;;0.50;;
30743;SDS011;17486;46.738;7.622;2022-09-09T15:06:09;1.85;;;0.50;;
30743;SDS011;17486;46.738;7.622;2022-09-09T15:08:37;1.90;;;0.57;;
30743;SDS011;17486;46.738;7.622;2022-09-09T15:11:04;1.95;;;0.70;;
30743;SDS011;17486;46.738;7.622;2022-09-09T15:13:31;1.10;;;0.47;;
30743;SDS011;17486;46.738;7.622;2022-09-09T15:16:02;1.48;;;0.52;;
30743;SDS011;17486;46.738;7.622;2022-09-09T15:18:32;0.98;;;0.57;;
30743;SDS011;17486;46.738;7.622;2022-09-09T15:20:58;1.85;;;0.55;;
30743;SDS011;17486;46.738;7.622;2022-09-09T15:23:25;1.35;;;0.60;;
30743;SDS011;17486;46.738;7.622;2022-09-09T15:25:54;2.20;;;0.52;;
30743;SDS011;17486;46.738;7.622;2022-09-09T15:28:21;0.77;;;0.53;;
30743;SDS011;17486;46.738;7.622;2022-09-09T15:30:50;2.00;;;0.50;;
30743;SDS011;17486;46.738;7.622;2022-09-09T15:33:17;1.33;;;0.63;;
30743;SDS011;17486;46.738;7.622;2022-09-09T15:35:46;2.20;;;0.80;;
30743;SDS011;17486;46.738;7.622;2022-09-09T15:38:12;1.38;;;0.60;;
30743;SDS011;17486;46.738;7.622;2022-09-09T15:40:38;2.75;;;0.80;;
30743;SDS011;17486;46.738;7.622;2022-09-09T15:43:05;1.85;;;0.70;;
30743;SDS011;17486;46.738;7.622;2022-09-09T15:45:31;1.90;;;0.95;;
30743;SDS011;17486;46.738;7.622;2022-09-09T15:47:59;1.10;;;0.60;;
30743;SDS011;17486;46.738;7.622;2022-09-09T15:50:25;3.15;;;0.70;;
30743;SDS011;17486;46.738;7.622;2022-09-09T15:52:51;2.83;;;0.90;;
30743;SDS011;17486;46.738;7.622;2022-09-09T15:55:17;1.38;;;0.63;;
30743;SDS011;17486;46.738;7.622;2022-09-09T15:57:45;1.63;;;0.70;;
30743;SDS011;17486;46.738;7.622;2022-09-09T16:00:11;2.03;;;0.57;;
30743;SDS011;17486;46.738;7.622;2022-09-09T16:02:38;1.08;;;0.55;;
30743;SDS011;17486;46.738;7.622;2022-09-09T16:05:03;0.75;;;0.70;;
30743;SDS011;17486;46.738;7.622;2022-09-09T16:07:29;1.42;;;0.70;;
30743;SDS011;17486;46.738;7.622;2022-09-09T16:09:55;1.50;;;0.93;;
30743;SDS011;17486;46.738;7.622;2022-09-09T16:12:20;2.05;;;0.80;;
30743;SDS011;17486;46.738;7.622;2022-09-09T16:14:46;3.13;;;0.80;;
30743;SDS011;17486;46.738;7.622;2022-09-09T16:17:11;3.17;;;0.77;;
30743;SDS011;17486;46.738;7.622;2022-09-09T16:19:37;1.10;;;0.60;;
30743;SDS011;17486;46.738;7.622;2022-09-09T16:22:03;153.93;;;121.88;;
30743;SDS011;17486;46.738;7.622;2022-09-09T16:24:29;204.43;;;167.10;;
30743;SDS011;17486;46.738;7.622;2022-09-09T16:26:55;169.43;;;141.13;;
30743;SDS011;17486;46.738;7.622;2022-09-09T16:29:21;29.63;;;25.58;;
30743;SDS011;17486;46.738;7.622;2022-09-09T16:31:48;4.10;;;3.67;;
30743;SDS011;17486;46.738;7.622;2022-09-09T16:34:14;2.80;;;1.33;;
30743;SDS011;17486;46.738;7.622;2022-09-09T16:36:42;2.00;;;0.80;;
30743;SDS011;17486;46.738;7.622;2022-09-09T16:39:09;2.97;;;1.00;;
30743;SDS011;17486;46.738;7.622;2022-09-09T16:41:40;1.58;;;0.80;;
30743;SDS011;17486;46.738;7.622;2022-09-09T16:44:07;1.92;;;0.90;;
30743;SDS011;17486;46.738;7.622;2022-09-09T16:46:35;2.65;;;0.80;;
30743;SDS011;17486;46.738;7.622;2022-09-09T16:49:04;1.38;;;0.77;;
30743;SDS011;17486;46.738;7.622;2022-09-09T16:51:35;4.93;;;1.10;;
30743;SDS011;17486;46.738;7.622;2022-09-09T16:54:04;2.85;;;0.88;;
30743;SDS011;17486;46.738;7.622;2022-09-09T16:56:35;2.42;;;1.20;;
30743;SDS011;17486;46.738;7.622;2022-09-09T16:59:03;2.40;;;1.02;;